sensor_id;sensor_type;location;lat;lon;timestamp;pressure;altitude;pressure_sealevel;temperature;humidity
9281;BME280;4679;47.966;7.958;2023-08-01T06:12:56;96086.34;;;17.69;74.59
9281;BME280;4679;47.966;7.958;2023-08-01T06:14:58;96070.38;;;17.72;74.52
9281;BME280;4679;47.966;7.958;2023-08-01T06:16:59;96065.97;;;17.76;74.63
9281;BME280;4679;47.966;7.958;2023-08-01T06:19:01;96076.53;;;17.73;74.32
9281;BME280;4679;47.966;7.958;2023-08-01T06:21:03;96084.28;;;17.66;74.29
9281;BME280;4679;47.966;7.958;2023-08-01T06:23:05;96090.06;;;17.50;74.78
9281;BME280;4679;47.966;7.958;2023-08-01T06:25:07;96069.69;;;17.32;75.50
9281;BME280;4679;47.966;7.958;2023-08-01T06:27:09;96060.47;;;17.16;76.04
9281;BME280;4679;47.966;7.958;2023-08-01T06:29:12;96052.44;;;17.16;76.25
9281;BME280;4679;47.966;7.958;2023-08-01T06:31:14;96047.69;;;17.13;76.00
9281;BME280;4679;47.966;7.958;2023-08-01T06:33:15;96068.81;;;17.06;76.73
9281;BME280;4679;47.966;7.958;2023-08-01T06:35:17;96078.44;;;17.07;76.13
9281;BME280;4679;47.966;7.958;2023-08-01T06:37:19;96073.81;;;16.99;76.32
9281;BME280;4679;47.966;7.958;2023-08-01T06:39:20;96067.06;;;17.01;76.99
9281;BME280;4679;47.966;7.958;2023-08-01T06:41:22;96064.69;;;17.00;76.88
9281;BME280;4679;47.966;7.958;2023-08-01T06:43:23;96062.81;;;17.00;77.39
9281;BME280;4679;47.966;7.958;2023-08-01T06:45:27;96083.31;;;17.05;76.77
9281;BME280;4679;47.966;7.958;2023-08-01T06:47:28;96086.97;;;17.17;77.27
9281;BME280;4679;47.966;7.958;2023-08-01T06:49:30;96113.34;;;17.24;76.94
9281;BME280;4679;47.966;7.958;2023-08-01T06:51:32;96103.25;;;17.30;77.38
9281;BME280;4679;47.966;7.958;2023-08-01T06:53:33;96113.50;;;17.28;77.09
9281;BME280;4679;47.966;7.958;2023-08-01T06:55:35;96108.47;;;17.26;77.34
9281;BME280;4679;47.966;7.958;2023-08-01T06:57:37;96125.19;;;17.32;77.38
9281;BME280;4679;47.966;7.958;2023-08-01T06:59:39;96122.34;;;17.28;77.73
9281;BME280;4679;47.966;7.958;2023-08-01T07:01:42;96123.44;;;17.27;77.90
9281;BME280;4679;47.966;7.958;2023-08-01T07:03:44;96109.75;;;17.37;77.73
9281;BME280;4679;47.966;7.958;2023-08-01T07:05:45;96117.81;;;17.37;77.26
9281;BME280;4679;47.966;7.958;2023-08-01T07:07:47;96112.44;;;17.37;77.21
9281;BME280;4679;47.966;7.958;2023-08-01T07:09:49;96112.28;;;17.42;77.79
9281;BME280;4679;47.966;7.958;2023-08-01T07:11:50;96098.59;;;17.52;77.35
9281;BME280;4679;47.966;7.958;2023-08-01T07:13:52;96114.88;;;17.56;77.42
9281;BME280;4679;47.966;7.958;2023-08-01T07:15:54;96098.00;;;17.64;77.63
9281;BME280;4679;47.966;7.958;2023-08-01T07:17:57;96116.97;;;17.68;77.37
9281;BME280;4679;47.966;7.958;2023-08-01T07:19:58;96112.06;;;17.70;77.20
9281;BME280;4679;47.966;7.958;2023-08-01T07:21:59;96101.03;;;17.71;77.24
9281;BME280;4679;47.966;7.958;2023-08-01T07:24:01;96094.22;;;17.74;77.51
9281;BME280;4679;47.966;7.958;2023-08-01T07:26:02;96088.84;;;17.74;77.79
9281;BME280;4679;47.966;7.958;2023-08-01T07:28:04;96102.28;;;17.74;77.34
9281;BME280;4679;47.966;7.958;2023-08-01T07:30:07;96098.34;;;17.80;77.79
9281;BME280;4679;47.966;7.958;2023-08-01T07:32:09;96102.31;;;17.82;77.56
9281;BME280;4679;47.966;7.958;2023-08-01T07:34:12;96105.63;;;17.71;77.63
9281;BME280;4679;47.966;7.958;2023-08-01T07:36:14;96116.75;;;17.55;78.37
9281;BME280;4679;47.966;7.958;2023-08-01T07:38:15;96112.63;;;17.49;78.21
9281;BME280;4679;47.966;7.958;2023-08-01T07:40:17;96118.44;;;17.43;78.57
9281;BME280;4679;47.966;7.958;2023-08-01T07:42:19;96105.69;;;17.48;78.47
9281;BME280;4679;47.966;7.958;2023-08-01T07:44:21;96121.47;;;17.41;78.99
9281;BME280;4679;47.966;7.958;2023-08-01T07:46:22;96104.25;;;17.42;79.09
9281;BME280;4679;47.966;7.958;2023-08-01T07:48:24;96106.47;;;17.40;79.22
9281;BME280;4679;47.966;7.958;2023-08-01T07:50:27;96118.28;;;17.39;79.00
9281;BME280;4679;47.966;7.958;2023-08-01T07:52:29;96121.75;;;17.40;79.24
9281;BME280;4679;47.966;7.958;2023-08-01T07:54:30;96114.50;;;17.40;78.98
9281;BME280;4679;47.966;7.958;2023-08-01T07:56:32;96136.09;;;17.35;79.35
9281;BME280;4679;47.966;7.958;2023-08-01T07:58:35;96121.25;;;17.29;79.82
9281;BME280;4679;47.966;7.958;2023-08-01T08:00:37;96128.19;;;17.30;79.69
9281;BME280;4679;47.966;7.958;2023-08-01T08:02:39;96102.00;;;17.27;79.50
9281;BME280;4679;47.966;7.958;2023-08-01T08:04:40;96094.28;;;17.26;79.66
9281;BME280;4679;47.966;7.958;2023-08-01T08:06:43;96108.78;;;17.25;80.07
9281;BME280;4679;47.966;7.958;2023-08-01T08:08:45;96100.44;;;17.26;80.00
9281;BME280;4679;47.966;7.958;2023-08-01T08:10:47;96093.94;;;17.27;79.92
9281;BME280;4679;47.966;7.958;2023-08-01T08:12:48;96100.88;;;17.28;80.01
9281;BME280;4679;47.966;7.958;2023-08-01T08:14:50;96099.00;;;17.29;80.22
9281;BME280;4679;47.966;7.958;2023-08-01T08:16:52;96102.47;;;17.29;80.45
9281;BME280;4679;47.966;7.958;2023-08-01T08:18:53;96095.56;;;17.37;80.33
9281;BME280;4679;47.966;7.958;2023-08-01T08:20:55;96097.75;;;17.35;80.27
9281;BME280;4679;47.966;7.958;2023-08-01T08:22:58;96079.97;;;17.39;80.49
9281;BME280;4679;47.966;7.958;2023-08-01T08:24:59;96081.84;;;17.38;80.40
9281;BME280;4679;47.966;7.958;2023-08-01T08:27:01;96074.91;;;17.37;80.62
9281;BME280;4679;47.966;7.958;2023-08-01T08:29:03;96085.63;;;17.37;80.67
9281;BME280;4679;47.966;7.958;2023-08-01T08:31:05;96085.63;;;17.37;81.04
9281;BME280;4679;47.966;7.958;2023-08-01T08:33:07;96088.63;;;17.44;80.61
9281;BME280;4679;47.966;7.958;2023-08-01T08:35:10;96084.38;;;17.43;80.66
9281;BME280;4679;47.966;7.958;2023-08-01T08:37:12;96110.25;;;17.48;80.56
9281;BME280;4679;47.966;7.958;2023-08-01T08:39:15;96093.72;;;17.54;81.02
9281;BME280;4679;47.966;7.958;2023-08-01T08:41:20;96091.97;;;17.58;80.82
9281;BME280;4679;47.966;7.958;2023-08-01T08:43:23;96124.84;;;17.64;80.56
9281;BME280;4679;47.966;7.958;2023-08-01T08:45:24;96092.34;;;17.74;80.33
9281;BME280;4679;47.966;7.958;2023-08-01T08:47:27;96085.88;;;17.84;80.26
9281;BME280;4679;47.966;7.958;2023-08-01T08:49:29;96090.28;;;17.88;80.50
9281;BME280;4679;47.966;7.958;2023-08-01T08:51:31;96088.72;;;17.87;80.32
9281;BME280;4679;47.966;7.958;2023-08-01T08:53:33;96095.81;;;17.92;80.60
9281;BME280;4679;47.966;7.958;2023-08-01T08:55:37;96109.09;;;17.97;80.43
9281;BME280;4679;47.966;7.958;2023-08-01T08:57:39;96098.19;;;17.93;80.44
9281;BME280;4679;47.966;7.958;2023-08-01T08:59:43;96087.47;;;17.93;80.68
9281;BME280;4679;47.966;7.958;2023-08-01T09:01:45;96079.88;;;17.96;80.60
9281;BME280;4679;47.966;7.958;2023-08-01T09:03:47;96099.31;;;18.01;80.70
9281;BME280;4679;47.966;7.958;2023-08-01T09:05:50;96102.00;;;18.10;80.51
9281;BME280;4679;47.966;7.958;2023-08-01T09:07:51;96086.22;;;18.17;80.46
9281;BME280;4679;47.966;7.958;2023-08-01T09:09:54;96082.56;;;18.21;79.98
9281;BME280;4679;47.966;7.958;2023-08-01T09:11:58;96089.81;;;18.30;79.93
9281;BME280;4679;47.966;7.958;2023-08-01T09:14:00;96077.00;;;18.35;80.04
9281;BME280;4679;47.966;7.958;2023-08-01T09:16:02;96071.31;;;18.37;80.27
9281;BME280;4679;47.966;7.958;2023-08-01T09:18:07;96074.31;;;18.44;80.17
9281;BME280;4679;47.966;7.958;2023-08-01T09:20:09;96077.59;;;18.49;79.85
9281;BME280;4679;47.966;7.958;2023-08-01T09:22:11;96077.59;;;18.58;79.94
9281;BME280;4679;47.966;7.958;2023-08-01T09:24:15;96076.97;;;18.70;79.64
9281;BME280;4679;47.966;7.958;2023-08-01T09:26:19;96078.81;;;18.86;79.33
9281;BME280;4679;47.966;7.958;2023-08-01T09:28:23;96076.22;;;19.07;78.75
9281;BME280;4679;47.966;7.958;2023-08-01T09:30:27;96074.09;;;19.21;78.38
9281;BME280;4679;47.966;7.958;2023-08-01T09:32:29;96104.97;;;19.45;77.96
9281;BME280;4679;47.966;7.958;2023-08-01T09:34:31;96091.03;;;19.51;77.92
9281;BME280;4679;47.966;7.958;2023-08-01T09:36:33;96098.00;;;19.52;77.87
9281;BME280;4679;47.966;7.958;2023-08-01T09:38:35;96095.78;;;19.54;77.84
9281;BME280;4679;47.966;7.958;2023-08-01T09:40:37;96093.19;;;19.58;77.63
9281;BME280;4679;47.966;7.958;2023-08-01T09:42:39;96098.13;;;19.56;77.62
9281;BME280;4679;47.966;7.958;2023-08-01T09:44:45;96087.50;;;19.59;77.52
9281;BME280;4679;47.966;7.958;2023-08-01T09:46:55;96095.00;;;19.75;77.20
9281;BME280;4679;47.966;7.958;2023-08-01T09:49:06;96090.53;;;19.79;77.06
9281;BME280;4679;47.966;7.958;2023-08-01T09:51:09;96103.28;;;19.70;77.10
9281;BME280;4679;47.966;7.958;2023-08-01T09:53:11;96099.19;;;19.63;77.15
9281;BME280;4679;47.966;7.958;2023-08-01T09:55:13;96099.97;;;19.64;77.25
9281;BME280;4679;47.966;7.958;2023-08-01T09:57:15;96093.63;;;19.69;76.89
9281;BME280;4679;47.966;7.958;2023-08-01T09:59:19;96105.75;;;19.75;76.78
9281;BME280;4679;47.966;7.958;2023-08-01T10:01:23;96103.03;;;19.83;76.66
9281;BME280;4679;47.966;7.958;2023-08-01T10:03:27;96120.22;;;19.91;76.09
9281;BME280;4679;47.966;7.958;2023-08-01T10:05:29;96117.81;;;19.98;76.02
9281;BME280;4679;47.966;7.958;2023-08-01T10:07:33;96121.16;;;20.16;75.49
9281;BME280;4679;47.966;7.958;2023-08-01T10:09:35;96114.81;;;20.32;75.13
9281;BME280;4679;47.966;7.958;2023-08-01T10:11:38;96115.66;;;20.66;74.29
9281;BME280;4679;47.966;7.958;2023-08-01T10:13:39;96112.28;;;20.69;73.96
9281;BME280;4679;47.966;7.958;2023-08-01T10:15:43;96119.63;;;20.48;74.38
9281;BME280;4679;47.966;7.958;2023-08-01T10:17:46;96135.03;;;20.26;74.89
9281;BME280;4679;47.966;7.958;2023-08-01T10:19:49;96129.91;;;20.13;75.39
9281;BME280;4679;47.966;7.958;2023-08-01T10:21:51;96132.63;;;20.04;75.36
9281;BME280;4679;47.966;7.958;2023-08-01T10:23:53;96132.25;;;19.93;75.31
9281;BME280;4679;47.966;7.958;2023-08-01T10:25:58;96136.25;;;19.87;75.48
9281;BME280;4679;47.966;7.958;2023-08-01T10:28:01;96131.53;;;19.84;75.25
9281;BME280;4679;47.966;7.958;2023-08-01T10:30:04;96131.84;;;19.83;75.20
9281;BME280;4679;47.966;7.958;2023-08-01T10:32:06;96120.56;;;19.89;74.74
9281;BME280;4679;47.966;7.958;2023-08-01T10:34:13;96123.19;;;20.40;73.69
9281;BME280;4679;47.966;7.958;2023-08-01T10:36:16;96119.94;;;20.79;72.47
9281;BME280;4679;47.966;7.958;2023-08-01T10:38:18;96130.06;;;20.70;72.80
9281;BME280;4679;47.966;7.958;2023-08-01T10:40:32;96124.69;;;20.28;73.65
9281;BME280;4679;47.966;7.958;2023-08-01T10:42:38;96129.56;;;20.14;74.04
9281;BME280;4679;47.966;7.958;2023-08-01T10:44:45;96132.56;;;20.33;73.63
9281;BME280;4679;47.966;7.958;2023-08-01T10:46:48;96135.38;;;20.46;73.46
9281;BME280;4679;47.966;7.958;2023-08-01T10:48:50;96136.81;;;20.43;73.18
9281;BME280;4679;47.966;7.958;2023-08-01T10:50:56;96147.19;;;20.53;73.09
9281;BME280;4679;47.966;7.958;2023-08-01T10:53:02;96150.84;;;20.49;73.13
9281;BME280;4679;47.966;7.958;2023-08-01T10:55:05;96145.03;;;20.47;73.25
9281;BME280;4679;47.966;7.958;2023-08-01T10:58:58;96153.69;;;20.31;73.46
9281;BME280;4679;47.966;7.958;2023-08-01T11:01:00;96157.22;;;20.23;73.60
9281;BME280;4679;47.966;7.958;2023-08-01T11:03:02;96153.34;;;20.12;73.87
9281;BME280;4679;47.966;7.958;2023-08-01T11:05:05;96141.59;;;19.96;74.23
9281;BME280;4679;47.966;7.958;2023-08-01T11:07:06;96152.06;;;19.89;74.37
9281;BME280;4679;47.966;7.958;2023-08-01T11:09:15;96154.75;;;19.89;74.15
9281;BME280;4679;47.966;7.958;2023-08-01T11:11:17;96157.28;;;19.94;73.98
9281;BME280;4679;47.966;7.958;2023-08-01T11:13:18;96157.88;;;19.99;74.02
9281;BME280;4679;47.966;7.958;2023-08-01T11:15:22;96149.09;;;20.11;73.92
9281;BME280;4679;47.966;7.958;2023-08-01T11:17:25;96142.19;;;20.43;73.03
9281;BME280;4679;47.966;7.958;2023-08-01T11:19:27;96149.91;;;20.65;72.14
9281;BME280;4679;47.966;7.958;2023-08-01T11:21:29;96147.16;;;20.74;72.28
9281;BME280;4679;47.966;7.958;2023-08-01T11:23:30;96143.06;;;21.13;71.16
9281;BME280;4679;47.966;7.958;2023-08-01T11:25:33;96150.66;;;21.32;70.67
9281;BME280;4679;47.966;7.958;2023-08-01T11:27:35;96143.03;;;21.46;70.93
9281;BME280;4679;47.966;7.958;2023-08-01T11:29:38;96133.69;;;21.68;69.45
9281;BME280;4679;47.966;7.958;2023-08-01T11:31:52;96135.44;;;22.13;69.25
9281;BME280;4679;47.966;7.958;2023-08-01T11:33:57;96151.63;;;22.25;69.11
9281;BME280;4679;47.966;7.958;2023-08-01T11:35:59;96142.00;;;22.39;68.50
9281;BME280;4679;47.966;7.958;2023-08-01T11:38:00;96142.13;;;22.43;68.51
9281;BME280;4679;47.966;7.958;2023-08-01T11:40:03;96152.03;;;22.39;68.45
9281;BME280;4679;47.966;7.958;2023-08-01T11:42:05;96134.19;;;22.50;68.37
9281;BME280;4679;47.966;7.958;2023-08-01T11:44:07;96132.53;;;22.45;68.66
9281;BME280;4679;47.966;7.958;2023-08-01T11:46:12;96120.19;;;22.60;68.05
9281;BME280;4679;47.966;7.958;2023-08-01T11:48:15;96088.00;;;22.71;67.43
9281;BME280;4679;47.966;7.958;2023-08-01T11:50:20;96098.94;;;22.74;67.30
9281;BME280;4679;47.966;7.958;2023-08-01T11:52:24;96092.50;;;22.95;66.96
9281;BME280;4679;47.966;7.958;2023-08-01T11:54:25;96094.97;;;23.15;66.30
9281;BME280;4679;47.966;7.958;2023-08-01T11:56:27;96087.53;;;23.12;66.21
9281;BME280;4679;47.966;7.958;2023-08-01T11:58:29;96103.88;;;23.16;66.13
9281;BME280;4679;47.966;7.958;2023-08-01T12:00:31;96091.47;;;22.99;66.11
9281;BME280;4679;47.966;7.958;2023-08-01T12:02:33;96106.84;;;23.11;65.92
9281;BME280;4679;47.966;7.958;2023-08-01T12:04:38;96086.41;;;23.13;65.48
9281;BME280;4679;47.966;7.958;2023-08-01T12:06:40;96103.22;;;22.75;66.10
9281;BME280;4679;47.966;7.958;2023-08-01T12:08:42;96090.03;;;22.30;67.19
9281;BME280;4679;47.966;7.958;2023-08-01T12:10:45;96105.97;;;22.35;66.64
9281;BME280;4679;47.966;7.958;2023-08-01T12:12:48;96104.34;;;22.74;65.75
9281;BME280;4679;47.966;7.958;2023-08-01T12:14:49;96092.59;;;22.98;64.94
9281;BME280;4679;47.966;7.958;2023-08-01T12:16:52;96115.59;;;23.20;64.20
9281;BME280;4679;47.966;7.958;2023-08-01T12:18:53;96115.47;;;23.01;64.19
9281;BME280;4679;47.966;7.958;2023-08-01T12:20:55;96113.72;;;22.93;64.61
9281;BME280;4679;47.966;7.958;2023-08-01T12:22:57;96117.94;;;23.22;63.80
9281;BME280;4679;47.966;7.958;2023-08-01T12:24:59;96124.22;;;23.41;63.16
9281;BME280;4679;47.966;7.958;2023-08-01T12:27:00;96123.63;;;23.48;62.86
9281;BME280;4679;47.966;7.958;2023-08-01T12:29:02;96129.72;;;23.45;62.78
9281;BME280;4679;47.966;7.958;2023-08-01T12:31:04;96129.03;;;23.48;62.45
9281;BME280;4679;47.966;7.958;2023-08-01T12:33:05;96123.78;;;23.55;62.03
9281;BME280;4679;47.966;7.958;2023-08-01T12:35:08;96136.19;;;23.56;61.87
9281;BME280;4679;47.966;7.958;2023-08-01T12:37:11;96139.53;;;23.65;61.34
9281;BME280;4679;47.966;7.958;2023-08-01T12:39:12;96139.75;;;23.76;60.93
9281;BME280;4679;47.966;7.958;2023-08-01T12:41:14;96133.81;;;23.70;60.86
9281;BME280;4679;47.966;7.958;2023-08-01T12:43:16;96142.81;;;23.74;60.49
9281;BME280;4679;47.966;7.958;2023-08-01T12:45:18;96156.25;;;23.87;60.25
9281;BME280;4679;47.966;7.958;2023-08-01T12:47:20;96155.78;;;24.00;59.59
9281;BME280;4679;47.966;7.958;2023-08-01T12:49:20;96144.56;;;24.17;59.23
9281;BME280;4679;47.966;7.958;2023-08-01T12:51:22;96151.25;;;24.39;58.91
9281;BME280;4679;47.966;7.958;2023-08-01T12:53:25;96148.31;;;24.48;58.48
9281;BME280;4679;47.966;7.958;2023-08-01T12:55:27;96156.69;;;24.59;58.42
9281;BME280;4679;47.966;7.958;2023-08-01T12:57:28;96153.03;;;24.51;58.45
9281;BME280;4679;47.966;7.958;2023-08-01T12:59:30;96149.59;;;24.73;57.92
9281;BME280;4679;47.966;7.958;2023-08-01T13:01:32;96151.50;;;24.92;57.42
9281;BME280;4679;47.966;7.958;2023-08-01T13:03:33;96158.38;;;24.86;57.50
9281;BME280;4679;47.966;7.958;2023-08-01T13:05:34;96162.88;;;24.98;57.63
9281;BME280;4679;47.966;7.958;2023-08-01T13:07:36;96168.06;;;25.06;57.14
9281;BME280;4679;47.966;7.958;2023-08-01T13:09:39;96164.53;;;25.02;56.96
9281;BME280;4679;47.966;7.958;2023-08-01T13:11:40;96169.09;;;25.21;57.05
9281;BME280;4679;47.966;7.958;2023-08-01T13:13:43;96166.25;;;25.33;56.29
9281;BME280;4679;47.966;7.958;2023-08-01T13:15:46;96159.34;;;25.39;56.47
9281;BME280;4679;47.966;7.958;2023-08-01T13:17:46;96166.78;;;25.19;56.19
9281;BME280;4679;47.966;7.958;2023-08-01T13:19:48;96167.06;;;25.14;56.26
9281;BME280;4679;47.966;7.958;2023-08-01T13:21:50;96156.75;;;25.01;56.29
9281;BME280;4679;47.966;7.958;2023-08-01T13:23:52;96152.63;;;25.10;56.00
9281;BME280;4679;47.966;7.958;2023-08-01T13:25:55;96158.00;;;25.07;56.33
9281;BME280;4679;47.966;7.958;2023-08-01T13:27:58;96153.09;;;25.35;55.75
9281;BME280;4679;47.966;7.958;2023-08-01T13:30:00;96159.78;;;25.64;54.64
9281;BME280;4679;47.966;7.958;2023-08-01T13:32:02;96163.69;;;25.44;55.90
9281;BME280;4679;47.966;7.958;2023-08-01T13:34:04;96163.22;;;25.15;56.11
9281;BME280;4679;47.966;7.958;2023-08-01T13:36:06;96173.91;;;24.31;57.13
9281;BME280;4679;47.966;7.958;2023-08-01T13:38:08;96181.00;;;23.85;58.07
9281;BME280;4679;47.966;7.958;2023-08-01T13:40:09;96181.59;;;23.15;59.58
9281;BME280;4679;47.966;7.958;2023-08-01T13:42:13;96188.94;;;22.47;61.52
9281;BME280;4679;47.966;7.958;2023-08-01T13:44:15;96200.53;;;21.83;62.98
9281;BME280;4679;47.966;7.958;2023-08-01T13:46:18;96199.38;;;21.60;63.83
9281;BME280;4679;47.966;7.958;2023-08-01T13:48:20;96208.81;;;21.41;64.00
9281;BME280;4679;47.966;7.958;2023-08-01T13:50:21;96201.16;;;21.31;65.00
9281;BME280;4679;47.966;7.958;2023-08-01T13:52:23;96190.91;;;21.25;64.93
9281;BME280;4679;47.966;7.958;2023-08-01T13:54:24;96193.31;;;21.38;65.19
9281;BME280;4679;47.966;7.958;2023-08-01T13:56:26;96200.97;;;21.61;64.64
9281;BME280;4679;47.966;7.958;2023-08-01T13:58:29;96192.75;;;21.69;65.15
9281;BME280;4679;47.966;7.958;2023-08-01T14:00:31;96190.63;;;21.75;64.92
9281;BME280;4679;47.966;7.958;2023-08-01T14:02:33;96192.06;;;21.60;65.68
9281;BME280;4679;47.966;7.958;2023-08-01T14:04:34;96187.00;;;21.34;66.41
9281;BME280;4679;47.966;7.958;2023-08-01T14:06:36;96184.88;;;21.64;66.27
9281;BME280;4679;47.966;7.958;2023-08-01T14:08:38;96182.97;;;22.01;65.11
9281;BME280;4679;47.966;7.958;2023-08-01T14:10:42;96186.66;;;22.21;65.17
9281;BME280;4679;47.966;7.958;2023-08-01T14:12:44;96172.97;;;22.82;64.25
9281;BME280;4679;47.966;7.958;2023-08-01T14:14:47;96182.41;;;23.47;62.93
9281;BME280;4679;47.966;7.958;2023-08-01T14:16:48;96168.69;;;23.72;62.32
9281;BME280;4679;47.966;7.958;2023-08-01T14:18:50;96176.06;;;24.06;61.28
9281;BME280;4679;47.966;7.958;2023-08-01T14:20:52;96179.78;;;24.17;61.17
9281;BME280;4679;47.966;7.958;2023-08-01T14:22:54;96170.16;;;23.85;61.52
9281;BME280;4679;47.966;7.958;2023-08-01T14:24:56;96172.28;;;23.76;61.57
9281;BME280;4679;47.966;7.958;2023-08-01T14:26:58;96173.34;;;24.06;60.58
9281;BME280;4679;47.966;7.958;2023-08-01T14:28:59;96180.78;;;24.25;59.98
9281;BME280;4679;47.966;7.958;2023-08-01T14:31:03;96186.78;;;24.34;59.61
9281;BME280;4679;47.966;7.958;2023-08-01T14:33:08;96183.88;;;24.43;59.35
9281;BME280;4679;47.966;7.958;2023-08-01T14:35:10;96186.09;;;24.57;58.85
9281;BME280;4679;47.966;7.958;2023-08-01T14:37:12;96180.97;;;24.71;58.61
9281;BME280;4679;47.966;7.958;2023-08-01T14:39:13;96177.22;;;24.79;57.96
9281;BME280;4679;47.966;7.958;2023-08-01T14:41:15;96167.09;;;24.95;57.90
9281;BME280;4679;47.966;7.958;2023-08-01T14:43:17;96184.56;;;25.17;57.29
9281;BME280;4679;47.966;7.958;2023-08-01T14:45:18;96179.78;;;25.10;57.43
9281;BME280;4679;47.966;7.958;2023-08-01T14:47:22;96172.66;;;25.02;57.22
9281;BME280;4679;47.966;7.958;2023-08-01T14:49:24;96178.69;;;25.34;56.70
9281;BME280;4679;47.966;7.958;2023-08-01T14:51:28;96179.50;;;25.38;56.42
9281;BME280;4679;47.966;7.958;2023-08-01T14:53:29;96176.91;;;25.22;56.70
9281;BME280;4679;47.966;7.958;2023-08-01T14:55:31;96166.72;;;25.16;56.55
9281;BME280;4679;47.966;7.958;2023-08-01T14:57:32;96172.44;;;25.11;56.75
9281;BME280;4679;47.966;7.958;2023-08-01T14:59:34;96173.88;;;24.85;57.18
9281;BME280;4679;47.966;7.958;2023-08-01T15:01:35;96184.84;;;24.93;56.75
9281;BME280;4679;47.966;7.958;2023-08-01T15:03:39;96182.66;;;24.79;56.74
9281;BME280;4679;47.966;7.958;2023-08-01T15:05:41;96189.56;;;24.76;56.76
9281;BME280;4679;47.966;7.958;2023-08-01T15:07:42;96203.44;;;24.71;56.34
9281;BME280;4679;47.966;7.958;2023-08-01T15:09:44;96202.13;;;24.11;57.25
9281;BME280;4679;47.966;7.958;2023-08-01T15:11:47;96209.22;;;23.37;59.12
9281;BME280;4679;47.966;7.958;2023-08-01T15:13:48;96201.94;;;23.41;59.23
9281;BME280;4679;47.966;7.958;2023-08-01T15:15:50;96215.81;;;22.68;60.72
9281;BME280;4679;47.966;7.958;2023-08-01T15:17:52;96202.91;;;22.49;61.18
9281;BME280;4679;47.966;7.958;2023-08-01T15:19:55;96210.56;;;22.47;61.26
9281;BME280;4679;47.966;7.958;2023-08-01T15:21:57;96187.88;;;22.64;60.99
9281;BME280;4679;47.966;7.958;2023-08-01T15:23:59;96206.56;;;22.69;60.38
9281;BME280;4679;47.966;7.958;2023-08-01T15:26:00;96197.53;;;22.77;60.23
9281;BME280;4679;47.966;7.958;2023-08-01T15:28:02;96202.84;;;22.73;60.20
9281;BME280;4679;47.966;7.958;2023-08-01T15:30:05;96198.22;;;22.74;60.30
9281;BME280;4679;47.966;7.958;2023-08-01T15:32:07;96202.75;;;22.70;60.22
9281;BME280;4679;47.966;7.958;2023-08-01T15:34:09;96195.38;;;22.55;60.37
9281;BME280;4679;47.966;7.958;2023-08-01T15:36:12;96203.25;;;22.60;60.10
9281;BME280;4679;47.966;7.958;2023-08-01T15:40:14;96213.66;;;22.45;60.35
9281;BME280;4679;47.966;7.958;2023-08-01T15:42:16;96210.28;;;22.36;60.38
9281;BME280;4679;47.966;7.958;2023-08-01T15:44:18;96228.78;;;22.10;60.96
9281;BME280;4679;47.966;7.958;2023-08-01T15:46:19;96220.09;;;21.92;61.69
9281;BME280;4679;47.966;7.958;2023-08-01T15:48:21;96218.19;;;21.93;61.78
9281;BME280;4679;47.966;7.958;2023-08-01T15:50:23;96221.56;;;22.02;61.43
9281;BME280;4679;47.966;7.958;2023-08-01T15:52:26;96225.41;;;22.01;61.71
9281;BME280;4679;47.966;7.958;2023-08-01T15:54:28;96217.75;;;22.03;61.66
9281;BME280;4679;47.966;7.958;2023-08-01T15:56:29;96226.44;;;22.08;61.71
9281;BME280;4679;47.966;7.958;2023-08-01T15:58:32;96228.47;;;22.12;61.23
9281;BME280;4679;47.966;7.958;2023-08-01T16:00:33;96225.63;;;22.08;61.71
9281;BME280;4679;47.966;7.958;2023-08-01T16:02:36;96228.56;;;22.03;61.87
9281;BME280;4679;47.966;7.958;2023-08-01T16:04:38;96224.25;;;21.77;62.09
9281;BME280;4679;47.966;7.958;2023-08-01T16:06:40;96212.00;;;21.68;62.05
9281;BME280;4679;47.966;7.958;2023-08-01T16:08:43;96227.16;;;21.60;62.69
9281;BME280;4679;47.966;7.958;2023-08-01T16:10:44;96215.91;;;21.58;62.92
9281;BME280;4679;47.966;7.958;2023-08-01T16:12:45;96219.53;;;21.62;62.37
9281;BME280;4679;47.966;7.958;2023-08-01T16:14:47;96221.09;;;21.63;62.49
9281;BME280;4679;47.966;7.958;2023-08-01T16:16:48;96224.59;;;21.64;62.43
9281;BME280;4679;47.966;7.958;2023-08-01T16:18:50;96223.69;;;21.72;62.48
9281;BME280;4679;47.966;7.958;2023-08-01T16:20:51;96223.47;;;21.77;62.11
9281;BME280;4679;47.966;7.958;2023-08-01T16:22:53;96230.91;;;21.80;61.79
9281;BME280;4679;47.966;7.958;2023-08-01T16:24:56;96242.38;;;21.77;62.31
9281;BME280;4679;47.966;7.958;2023-08-01T16:26:58;96252.63;;;21.84;61.84
9281;BME280;4679;47.966;7.958;2023-08-01T16:28:59;96243.28;;;21.81;61.96
9281;BME280;4679;47.966;7.958;2023-08-01T16:31:01;96255.31;;;21.71;61.92
9281;BME280;4679;47.966;7.958;2023-08-01T16:33:05;96252.50;;;21.68;62.02
9281;BME280;4679;47.966;7.958;2023-08-01T16:35:07;96261.41;;;21.68;61.83
9281;BME280;4679;47.966;7.958;2023-08-01T16:37:09;96254.84;;;21.69;61.63
9281;BME280;4679;47.966;7.958;2023-08-01T16:39:11;96250.47;;;21.65;61.95
9281;BME280;4679;47.966;7.958;2023-08-01T16:41:14;96261.16;;;21.61;61.98
9281;BME280;4679;47.966;7.958;2023-08-01T16:43:21;96257.06;;;21.55;61.92
9281;BME280;4679;47.966;7.958;2023-08-01T16:45:23;96256.84;;;21.48;62.26
9281;BME280;4679;47.966;7.958;2023-08-01T16:47:24;96269.44;;;21.44;62.14
9281;BME280;4679;47.966;7.958;2023-08-01T16:49:26;96279.41;;;21.31;62.06
9281;BME280;4679;47.966;7.958;2023-08-01T16:51:28;96272.91;;;21.32;62.08
9281;BME280;4679;47.966;7.958;2023-08-01T16:53:29;96284.28;;;21.38;61.84
9281;BME280;4679;47.966;7.958;2023-08-01T16:55:31;96293.50;;;21.37;61.80
9281;BME280;4679;47.966;7.958;2023-08-01T16:57:34;96289.56;;;21.34;61.94
9281;BME280;4679;47.966;7.958;2023-08-01T16:59:38;96301.34;;;21.30;61.81
9281;BME280;4679;47.966;7.958;2023-08-01T17:01:40;96296.88;;;21.34;61.76
9281;BME280;4679;47.966;7.958;2023-08-01T17:03:41;96299.09;;;21.32;61.55
9281;BME280;4679;47.966;7.958;2023-08-01T17:05:43;96291.66;;;21.29;61.42
9281;BME280;4679;47.966;7.958;2023-08-01T17:07:44;96294.81;;;21.31;61.39
9281;BME280;4679;47.966;7.958;2023-08-01T17:09:46;96294.34;;;21.29;61.47
9281;BME280;4679;47.966;7.958;2023-08-01T17:11:48;96292.13;;;21.31;61.39
9281;BME280;4679;47.966;7.958;2023-08-01T17:13:51;96285.81;;;21.27;61.43
9281;BME280;4679;47.966;7.958;2023-08-01T17:15:52;96293.00;;;21.23;61.44
9281;BME280;4679;47.966;7.958;2023-08-01T17:17:54;96287.94;;;21.21;61.30
9281;BME280;4679;47.966;7.958;2023-08-01T17:19:56;96280.63;;;21.22;61.28
9281;BME280;4679;47.966;7.958;2023-08-01T17:21:58;96282.66;;;21.25;61.27